Lawton, MI (49065)

7:20 AM EST on November 24, 2014 (GMT -0500)
Farming/Agriculture | Change Station
CLOSE
Current Station
Personal Weather Station
Location: Decatur, MI
Elevation: 864 ft
Nearby Weather Stations
Active Advisory: Wind Advisory Active Notice: Record Report

Elev 864 ft 42.05 °N, 85.91 °W | Updated 22 seconds ago

Fog
Fog
48.9 °F
Feels Like 47 °F
N
4.7
Wind Variable Wind from South
Gusts 7.8 mph

Today
High -- | Low -- °F
--% Chance of Precip.
Yesterday
High -- | Low -- °F
Precip. -- in
7:44 AM 5:15 PM
Waxing Crescent, 5% visible
Pressure 29.11 in
Visibility 2.5 miles
Clouds Overcast 600 ft
Windchill 47 °F
Dew Point 49 °F
Humidity 100%
Rainfall 0.00 in
Snow Depth Not available.
UV 0 out of 12
Pollen .10 out of 12
Air Quality Not available.
Flu Activity Not available.
METAR KAZO 241153Z 21009KT 2 1/2SM BR OVC006 11/09 A2910 RMK AO2 RAE53 CIG 004V011 SLP856 P0004 60035 70162 T01060094 10117 20106 51012

More Conditions Fewer Conditions

Pressure 29.11 in
Visibility 2.5 miles
Clouds Overcast 600 ft
Windchill 47 °F
Dew Point 49 °F
Humidity 100%
Rainfall 0.00 in
Snow Depth Not available.
UV 0 out of 12
Pollen .10 out of 12
Air Quality Not available.
Flu Activity Not available.
METAR KAZO 241153Z 21009KT 2 1/2SM BR OVC006 11/09 A2910 RMK AO2 RAE53 CIG 004V011 SLP856 P0004 60035 70162 T01060094 10117 20106 51012

More Conditions Fewer Conditions

10-Day Weather Forecast

Almanac

Astronomy

Nov. 24, 2014 Rise Set
Actual Time
Civil Twilight
Nautical Twilight
Astronomical Twilight
Moon
Length of Visible Light
Length of Day
Tomorrow will be .
, % of the Moon is Illuminated

Today's Extremes

State Highs State Lows

Community

WunderPhotos

Upload Photos

1,773,319 photos uploaded!

WunderBlogs® & News

Nearby

Air Quality

  Air Quality AQ Index Pollutant
Not available.

Snow Depth

Station Depth Elevation

Earthquake Activity

City Distance Mag. Time & Date
Minimum magnitude displayed is 2.5.

Coastal Water Temperatures

Place Temperature

Nearby Weather Stations